Time;durP1;ratioP1;P1;durP2;ratioP2;P2;SDS_P1;SDS_P2;PMS_P1;PMS_P2;Temp;Humidity;BMP_temperature;BMP_pressure;BME280_temperature;BME280_humidity;BME280_pressure;Samples;Min_cycle;Max_cycle;Signal;HPM_P1;HPM_P2
2022/05/22 00:00:47;;;;;;;6.32;4.18;;;;;;;22.25;41.74;102060.16;5030106;28;20407;-74
2022/05/22 00:03:12;;;;;;;8.45;3.92;;;;;;;22.09;42.11;102062.53;5032017;28;20029;-74
2022/05/22 00:05:38;;;;;;;7.60;3.72;;;;;;;22.27;41.84;102044.97;5031594;28;20025;-74
2022/05/22 00:08:03;;;;;;;9.90;4.10;;;;;;;22.33;41.36;102044.72;5030637;28;20504;-74
2022/05/22 00:10:29;;;;;;;6.75;3.40;;;;;;;22.56;40.79;102045.59;5029616;28;20079;-74
2022/05/22 00:12:54;;;;;;;9.27;3.33;;;;;;;22.18;41.24;102036.41;5062727;28;20033;-74
2022/05/22 00:15:19;;;;;;;9.02;4.07;;;;;;;21.98;42.10;102028.34;5029343;28;20025;-74
2022/05/22 00:17:45;;;;;;;9.93;3.70;;;;;;;21.88;42.04;102027.00;5030398;28;20106;-74
2022/05/22 00:20:12;;;;;;;11.52;4.07;;;;;;;21.97;41.68;102021.31;5031109;28;20056;-74
2022/05/22 00:22:38;;;;;;;9.73;3.67;;;;;;;22.20;41.21;102018.59;5028340;28;20117;-74
2022/05/22 00:25:10;;;;;;;14.63;4.60;;;;;;;21.92;41.85;102018.81;5046944;28;20108;-74
2022/05/22 00:27:36;;;;;;;9.05;3.72;;;;;;;21.93;41.75;102025.03;5029714;28;20443;-74
2022/05/22 00:30:01;;;;;;;9.03;3.43;;;;;;;22.24;40.90;102023.78;5062309;28;20025;-74
2022/05/22 00:32:26;;;;;;;12.17;3.90;;;;;;;22.12;41.24;102026.03;5030307;28;20493;-74
2022/05/22 00:34:52;;;;;;;8.20;4.07;;;;;;;21.76;41.74;102018.56;5029224;28;20025;-74
2022/05/22 00:37:17;;;;;;;11.53;4.27;;;;;;;21.80;41.57;102014.84;5014358;28;20033;-74
2022/05/22 00:39:43;;;;;;;11.32;3.85;;;;;;;21.85;41.79;102022.66;5031399;28;20147;-73
2022/05/22 00:42:18;;;;;;;11.07;3.83;;;;;;;21.79;41.75;102017.56;5030982;28;20030;-74
2022/05/22 00:44:45;;;;;;;16.17;4.07;;;;;;;21.64;41.87;102019.03;5062305;28;20022;-74
2022/05/22 00:47:10;;;;;;;9.93;3.50;;;;;;;21.79;41.88;102023.75;5030137;28;20026;-74
2022/05/22 00:49:41;;;;;;;15.00;3.90;;;;;;;21.80;41.53;102024.63;5030117;28;20473;-74
2022/05/22 00:52:13;;;;;;;8.43;3.67;;;;;;;21.95;41.44;102029.34;5030877;28;20032;-73
2022/05/22 00:54:46;;;;;;;11.13;4.10;;;;;;;21.91;41.23;102024.22;5062586;28;20389;-74
2022/05/22 00:57:22;;;;;;;;;;;;;;;21.99;41.08;102019.44;5035121;28;20024;-74
2022/05/22 00:59:55;;;;;;;10.40;4.13;;;;;;;21.95;41.25;102013.38;5032453;28;19913;-73
2022/05/22 01:02:20;;;;;;;;;;;;;;;21.98;41.06;102012.38;5034758;28;20036;-73
2022/05/22 01:04:48;;;;;;;8.67;3.70;;;;;;;22.04;41.02;102004.16;5034721;28;19916;-74
2022/05/22 01:07:14;;;;;;;18.80;5.00;;;;;;;21.91;41.19;102005.56;5034762;28;20029;-74
2022/05/22 01:09:39;;;;;;;7.37;3.70;;;;;;;21.79;41.42;102013.13;5034712;28;20115;-73
2022/05/22 01:12:09;;;;;;;6.37;3.50;;;;;;;21.93;40.54;102014.38;5033582;28;20029;-74
2022/05/22 01:14:35;;;;;;;10.40;3.70;;;;;;;21.85;41.58;102007.53;5043922;28;20028;-73
2022/05/22 01:17:05;;;;;;;4.97;3.00;;;;;;;21.85;41.17;102017.34;5033914;28;20366;-73
2022/05/22 01:19:30;;;;;;;9.40;4.07;;;;;;;21.83;41.56;102025.38;5033080;28;20368;-74
2022/05/22 01:22:00;;;;;;;9.33;3.70;;;;;;;21.67;41.62;102021.56;5034247;28;20043;-74
2022/05/22 01:24:26;;;;;;;9.57;3.33;;;;;;;21.74;41.76;102020.41;5033919;28;20023;-74
2022/05/22 01:26:54;;;;;;;7.23;3.17;;;;;;;21.67;41.37;102024.22;5034798;28;20052;-73
2022/05/22 01:29:19;;;;;;;9.03;3.43;;;;;;;21.69;41.22;102022.38;5034937;28;20571;-74
2022/05/22 01:31:45;;;;;;;9.07;3.83;;;;;;;21.59;41.81;102015.66;5065978;28;20032;-74
2022/05/22 01:34:11;;;;;;;5.90;3.63;;;;;;;21.70;41.47;102005.47;5035644;28;20036;-73
2022/05/22 01:36:37;;;;;;;10.03;4.20;;;;;;;21.49;41.66;102002.69;5033924;28;20025;-74
2022/05/22 01:39:04;;;;;;;12.30;3.83;;;;;;;21.34;42.03;101995.28;5034331;28;20374;-74
2022/05/22 01:41:29;;;;;;;10.17;3.67;;;;;;;21.50;41.71;101993.78;5038789;28;20036;-73
2022/05/22 01:43:54;;;;;;;12.33;3.80;;;;;;;21.78;41.04;101990.09;5055221;28;20029;-74
2022/05/22 01:46:20;;;;;;;9.97;4.67;;;;;;;21.59;41.72;101989.06;5038828;28;20394;-74
2022/05/22 01:48:45;;;;;;;13.60;3.90;;;;;;;21.65;41.63;101983.50;5034622;28;20028;-74
2022/05/22 01:51:10;;;;;;;8.00;3.67;;;;;;;21.84;40.76;101984.53;5049491;28;20122;-74
2022/05/22 01:53:36;;;;;;;10.07;3.90;;;;;;;21.54;41.37;101977.72;5065437;28;20029;-73
2022/05/22 01:56:02;;;;;;;9.03;4.20;;;;;;;21.33;41.80;101966.94;5034373;28;20026;-74
2022/05/22 01:58:28;;;;;;;10.27;4.53;;;;;;;21.24;41.95;101969.94;5033699;28;20025;-74
2022/05/22 02:00:54;;;;;;;9.67;4.10;;;;;;;21.48;41.35;101966.34;5032516;28;20018;-73
2022/05/22 02:03:19;;;;;;;10.27;4.27;;;;;;;21.32;41.85;101967.88;5015719;28;20125;-74
2022/05/22 02:05:44;;;;;;;11.97;4.53;;;;;;;21.21;42.46;101962.09;5026850;28;20457;-73
2022/05/22 02:08:20;;;;;;;9.00;4.17;;;;;;;21.39;42.29;101961.41;5032420;28;20029;-74
2022/05/22 02:10:55;;;;;;;9.23;4.17;;;;;;;21.43;41.72;101957.72;5032143;28;20026;-74
2022/05/22 02:13:23;;;;;;;11.07;4.47;;;;;;;21.43;41.62;101957.72;5017576;28;20049;-74
2022/05/22 02:15:50;;;;;;;11.47;4.30;;;;;;;21.37;42.11;101957.94;5060153;28;20026;-74
2022/05/22 02:18:15;;;;;;;11.53;4.37;;;;;;;21.11;42.26;101962.41;5046427;28;20018;-74
2022/05/22 02:20:41;;;;;;;11.73;4.57;;;;;;;21.31;42.09;101958.19;5055672;28;20025;-73
2022/05/22 02:23:06;;;;;;;8.47;3.97;;;;;;;21.34;42.01;101960.72;5049784;28;20032;-73
2022/05/22 02:25:35;;;;;;;9.30;4.13;;;;;;;21.38;42.35;101950.81;5034394;28;20052;-74
2022/05/22 02:28:03;;;;;;;8.27;3.83;;;;;;;21.59;41.79;101941.19;5032311;28;20057;-74
2022/05/22 02:30:31;;;;;;;8.47;3.40;;;;;;;21.49;41.53;101945.97;5032334;28;20078;-74
2022/05/22 02:32:57;;;;;;;10.87;4.40;;;;;;;21.56;41.61;101951.97;5034398;28;20061;-74
2022/05/22 02:35:22;;;;;;;6.87;3.57;;;;;;;21.50;41.98;101945.91;5032079;28;20167;-73
2022/05/22 02:37:53;;;;;;;7.73;4.00;;;;;;;21.41;41.90;101943.59;5033274;28;20028;-74
2022/05/22 02:40:21;;;;;;;7.80;3.50;;;;;;;21.28;42.15;101932.56;5040940;28;20036;-74
2022/05/22 02:42:49;;;;;;;8.07;3.33;;;;;;;21.15;42.46;101932.13;5032440;28;20029;-74
2022/05/22 02:45:20;;;;;;;8.40;3.53;;;;;;;21.31;42.38;101931.59;5032685;28;20025;-73
2022/05/22 02:47:46;;;;;;;7.87;4.80;;;;;;;21.28;42.57;101931.69;5065441;28;20022;-74
2022/05/22 02:50:13;;;;;;;8.00;4.03;;;;;;;21.47;42.07;101929.19;5031714;28;20021;-74
2022/05/22 02:52:39;;;;;;;8.53;4.40;;;;;;;21.26;42.40;101926.41;5032961;28;20137;-74
2022/05/22 02:55:06;;;;;;;8.90;3.63;;;;;;;21.13;42.49;101926.03;5032682;28;20116;-73
2022/05/22 02:57:36;;;;;;;8.27;4.10;;;;;;;21.26;42.59;101928.22;5049065;28;20448;-74
2022/05/22 03:00:06;;;;;;;8.97;4.47;;;;;;;21.24;42.75;101917.66;5044040;28;20053;-74
2022/05/22 03:02:31;;;;;;;7.77;4.30;;;;;;;21.41;42.25;101924.97;5032951;28;20030;-74
2022/05/22 03:04:56;;;;;;;7.67;4.27;;;;;;;21.17;42.43;101932.06;5032633;28;20397;-74
2022/05/22 03:07:22;;;;;;;10.93;4.53;;;;;;;21.21;42.77;101933.69;5065999;28;20026;-73
2022/05/22 03:09:48;;;;;;;9.93;4.47;;;;;;;21.22;42.48;101926.59;5064339;28;20099;-74
2022/05/22 03:12:23;;;;;;;9.00;4.17;;;;;;;21.17;42.73;101921.44;5065224;28;20136;-74
2022/05/22 03:14:54;;;;;;;7.73;3.80;;;;;;;21.23;42.46;101923.03;5064512;28;20025;-73
2022/05/22 03:17:20;;;;;;;6.37;3.63;;;;;;;21.25;42.37;101929.16;5031295;28;20025;-74
2022/05/22 03:19:46;;;;;;;7.13;3.60;;;;;;;21.25;42.05;101918.50;5031688;28;20025;-73
2022/05/22 03:22:12;;;;;;;6.40;3.37;;;;;;;21.24;42.30;101922.97;5046574;28;20534;-74
2022/05/22 03:24:38;;;;;;;6.10;3.70;;;;;;;21.05;42.81;101913.94;5031459;28;20481;-73
2022/05/22 03:27:06;;;;;;;4.30;3.03;;;;;;;21.14;42.12;101914.47;5065299;28;20048;-74
2022/05/22 03:29:32;;;;;;;4.90;3.33;;;;;;;21.04;42.38;101907.75;5032165;28;20036;-73
2022/05/22 03:31:58;;;;;;;9.20;4.73;;;;;;;20.87;42.89;101904.84;5031205;28;20389;-73
2022/05/22 03:34:23;;;;;;;7.17;4.07;;;;;;;20.99;42.82;101907.06;5031788;28;20021;-73
2022/05/22 03:36:49;;;;;;;7.90;4.73;;;;;;;20.91;42.80;101907.34;5029991;28;20056;-73
2022/05/22 03:39:14;;;;;;;14.10;4.70;;;;;;;20.94;42.95;101911.69;5031111;28;20017;-74
2022/05/22 03:41:40;;;;;;;11.07;4.33;;;;;;;20.80;43.13;101909.50;5031014;28;20025;-73
2022/05/22 03:44:06;;;;;;;9.80;4.17;;;;;;;20.75;42.89;101907.03;5031217;28;20025;-73
2022/05/22 03:46:32;;;;;;;9.53;3.73;;;;;;;20.80;43.10;101894.44;5032895;28;20021;-74
2022/05/22 03:48:58;;;;;;;13.83;4.30;;;;;;;20.75;43.67;101893.75;5032820;28;20032;-73
2022/05/22 03:51:24;;;;;;;7.27;4.50;;;;;;;20.90;43.28;101899.44;5035355;28;20025;-74
2022/05/22 03:53:49;;;;;;;9.17;5.03;;;;;;;20.84;43.34;101901.38;5031825;28;20078;-73
2022/05/22 03:56:17;;;;;;;10.33;4.63;;;;;;;20.90;43.41;101894.13;5033020;28;20075;-73
2022/05/22 03:58:43;;;;;;;6.57;3.60;;;;;;;20.91;43.42;101885.22;5030665;28;20056;-73
2022/05/22 04:01:08;;;;;;;8.53;3.83;;;;;;;20.86;43.63;101877.41;5064100;28;20040;-73
2022/05/22 04:03:35;;;;;;;7.13;3.70;;;;;;;20.77;43.91;101883.94;5032154;28;20017;-74
2022/05/22 04:06:01;;;;;;;9.43;3.93;;;;;;;21.21;43.20;101883.19;5052219;28;20040;-74
2022/05/22 04:08:28;;;;;;;7.40;3.63;;;;;;;21.14;43.25;101887.91;5051392;28;20028;-73
2022/05/22 04:10:54;;;;;;;8.53;3.60;;;;;;;21.23;43.34;101880.50;5030809;28;20021;-73
2022/05/22 04:13:19;;;;;;;10.33;3.87;;;;;;;21.50;42.30;101874.09;5058535;28;20035;-73
2022/05/22 04:15:46;;;;;;;8.13;3.87;;;;;;;21.49;42.84;101877.66;5031010;28;20022;-74
2022/05/22 04:18:12;;;;;;;7.37;3.70;;;;;;;21.52;42.94;101872.25;5031778;28;20037;-73
2022/05/22 04:20:37;;;;;;;8.43;3.90;;;;;;;21.40;42.94;101867.38;5031583;28;20029;-73
2022/05/22 04:25:58;;;;;;;7.13;3.73;;;;;;;21.56;42.53;101867.69;5052322;28;20511;-73
2022/05/22 04:28:25;;;;;;;6.37;3.47;;;;;;;21.60;42.70;101869.31;5031084;28;20045;-73
2022/05/22 04:30:51;;;;;;;8.17;4.10;;;;;;;21.27;43.62;101871.47;5030564;28;20090;-74
2022/05/22 04:33:17;;;;;;;11.83;4.63;;;;;;;21.83;42.33;101871.03;5030773;28;20418;-73
2022/05/22 04:35:43;;;;;;;9.20;3.67;;;;;;;21.49;42.70;101868.84;5029826;28;20491;-74
2022/05/22 04:38:10;;;;;;;8.63;4.40;;;;;;;21.15;43.62;101873.66;5035743;28;20036;-73
2022/05/22 04:40:35;;;;;;;10.63;4.27;;;;;;;22.05;42.30;101864.81;5050819;28;20115;-74
2022/05/22 04:43:01;;;;;;;10.00;3.80;;;;;;;22.79;41.41;101874.97;5042265;28;20434;-73
2022/05/22 04:45:26;;;;;;;7.03;3.57;;;;;;;22.92;40.40;101869.06;5030744;28;20025;-74
2022/05/22 04:47:52;;;;;;;6.28;3.75;;;;;;;23.85;39.05;101869.09;5029808;28;20021;-73
2022/05/22 04:50:18;;;;;;;9.50;3.70;;;;;;;24.46;37.46;101864.25;5010946;28;20052;-73
2022/05/22 04:52:43;;;;;;;7.53;4.28;;;;;;;24.70;36.67;101863.94;5026247;28;20504;-74
2022/05/22 04:55:08;;;;;;;5.28;2.80;;;;;;;24.47;37.41;101871.34;5060832;28;20111;-72
2022/05/22 04:57:35;;;;;;;7.88;3.15;;;;;;;24.04;38.14;101869.06;5031396;28;20435;-74
2022/05/22 05:00:00;;;;;;;10.07;3.70;;;;;;;24.10;38.73;101859.00;5030818;28;20041;-73
2022/05/22 05:02:26;;;;;;;6.78;2.63;;;;;;;23.79;38.82;101858.72;5029896;28;20034;-74
2022/05/22 05:04:53;;;;;;;7.15;3.08;;;;;;;23.84;38.60;101851.34;5047456;28;20026;-74
2022/05/22 05:07:18;;;;;;;8.95;3.72;;;;;;;23.98;38.38;101853.34;5031187;28;20025;-74
2022/05/22 05:09:45;;;;;;;5.50;2.88;;;;;;;23.73;39.59;101859.03;5029484;28;20021;-73
2022/05/22 05:12:10;;;;;;;8.88;3.42;;;;;;;23.33;40.16;101851.16;5030561;28;20121;-74
2022/05/22 05:14:37;;;;;;;9.50;3.47;;;;;;;23.45;39.72;101852.38;5047487;28;20128;-74
2022/05/22 05:17:08;;;;;;;11.93;2.88;;;;;;;23.58;39.43;101859.78;5034269;28;20511;-74
2022/05/22 05:19:33;;;;;;;9.77;3.03;;;;;;;23.53;39.26;101857.34;5030729;28;20485;-74
2022/05/22 05:21:58;;;;;;;10.65;3.13;;;;;;;23.46;39.23;101856.75;5063885;28;20083;-74
2022/05/22 05:24:24;;;;;;;6.32;3.22;;;;;;;23.46;39.76;101867.44;5031089;28;20025;-74
2022/05/22 05:26:50;;;;;;;11.23;3.22;;;;;;;23.35;40.12;101870.59;5027950;28;20025;-74
2022/05/22 05:29:16;;;;;;;8.52;3.60;;;;;;;23.27;40.03;101882.59;5030984;28;20036;-74
2022/05/22 05:31:42;;;;;;;10.32;3.88;;;;;;;23.59;39.66;101877.50;5029731;28;20025;-74
2022/05/22 05:34:07;;;;;;;6.50;3.50;;;;;;;23.38;40.47;101880.28;5030558;28;20438;-73
2022/05/22 05:36:33;;;;;;;7.70;3.40;;;;;;;23.35;40.64;101875.09;5029930;28;20052;-73
2022/05/22 05:38:58;;;;;;;5.50;3.58;;;;;;;23.46;40.33;101878.09;5031522;28;20021;-74
2022/05/22 05:41:24;;;;;;;14.05;5.38;;;;;;;23.55;40.09;101882.16;5030320;28;20382;-74
2022/05/22 05:43:49;;;;;;;12.50;4.07;;;;;;;22.88;41.98;101887.00;5030332;28;20079;-74
2022/05/22 05:46:14;;;;;;;8.20;4.20;;;;;;;22.84;42.63;101886.25;5036014;28;20033;-73
2022/05/22 05:48:40;;;;;;;16.85;4.60;;;;;;;22.95;41.63;101882.25;5033630;28;20029;-73
2022/05/22 05:51:05;;;;;;;9.45;4.30;;;;;;;22.77;41.79;101878.63;5032608;28;20485;-73
2022/05/22 05:53:30;;;;;;;14.57;4.65;;;;;;;23.08;41.43;101878.09;5034037;28;20528;-73
2022/05/22 05:55:56;;;;;;;12.27;4.85;;;;;;;23.42;41.23;101879.19;5032889;28;20469;-74
2022/05/22 05:58:21;;;;;;;11.60;4.72;;;;;;;22.94;42.15;101885.84;5065752;28;20021;-73
2022/05/22 06:00:46;;;;;;;7.90;4.65;;;;;;;23.39;41.28;101882.00;5033795;28;20506;-73
2022/05/22 06:03:12;;;;;;;13.85;5.43;;;;;;;23.34;41.72;101894.69;5041355;28;20025;-74
2022/05/22 06:05:40;;;;;;;10.05;4.53;;;;;;;22.34;43.47;101897.38;5043964;28;20540;-74
2022/05/22 06:08:05;;;;;;;13.13;5.35;;;;;;;23.27;42.85;101895.94;5033590;28;20104;-73
2022/05/22 06:10:30;;;;;;;18.88;6.07;;;;;;;23.51;41.83;101885.91;5033474;28;20124;-73
2022/05/22 06:12:56;;;;;;;11.82;5.72;;;;;;;22.52;44.14;101883.25;5033279;28;20485;-74
2022/05/22 06:15:21;;;;;;;11.68;5.40;;;;;;;23.28;42.32;101879.84;5033539;28;20024;-73
2022/05/22 06:17:47;;;;;;;15.05;6.53;;;;;;;22.95;43.15;101882.25;5032726;28;20044;-73
2022/05/22 06:20:16;;;;;;;12.32;5.03;;;;;;;23.82;41.52;101869.25;5063581;28;20021;-73
2022/05/22 06:22:44;;;;;;;14.43;5.63;;;;;;;23.71;41.71;101866.22;5033411;28;20570;-73
2022/05/22 06:25:11;;;;;;;12.50;5.53;;;;;;;23.46;42.00;101862.09;5033305;28;20378;-73
2022/05/22 06:27:36;;;;;;;13.63;6.22;;;;;;;25.95;39.32;101850.75;5031294;28;20050;-74
2022/05/22 06:30:04;;;;;;;13.38;5.10;;;;;;;28.33;35.64;101858.03;5033118;28;20052;-73
2022/05/22 06:32:29;;;;;;;12.98;4.45;;;;;;;29.09;32.29;101856.25;5031528;28;20025;-73
2022/05/22 06:34:56;;;;;;;8.23;3.97;;;;;;;29.50;31.21;101859.59;5032619;28;20128;-73
2022/05/22 06:37:22;;;;;;;5.65;3.40;;;;;;;31.35;28.87;101867.75;5035665;28;20049;-73
2022/05/22 06:39:51;;;;;;;10.45;3.72;;;;;;;30.07;28.61;101862.53;5018060;28;20075;-73
2022/05/22 06:42:44;;;;;;;13.20;3.88;;;;;;;31.43;27.45;101874.22;5045452;28;20415;-72
2022/05/22 06:45:11;;;;;;;11.52;3.28;;;;;;;30.86;27.66;101875.28;5014596;28;20026;-72
2022/05/22 06:47:37;;;;;;;9.82;3.63;;;;;;;32.08;26.73;101870.69;5045338;28;20041;-72
2022/05/22 06:50:05;;;;;;;10.05;3.53;;;;;;;32.94;25.41;101870.47;5027411;28;20497;-73
2022/05/22 06:52:32;;;;;;;9.57;3.40;;;;;;;31.51;26.86;101870.06;5064762;28;20405;-72
2022/05/22 06:54:58;;;;;;;10.25;3.80;;;;;;;32.19;26.26;101878.78;5034714;28;20035;-72
2022/05/22 06:57:24;;;;;;;6.85;3.50;;;;;;;31.86;26.63;101882.47;5032722;28;20025;-72
2022/05/22 06:59:54;;;;;;;7.43;3.15;;;;;;;33.11;25.47;101872.53;5024571;28;20032;-72
2022/05/22 07:02:19;;;;;;;8.77;3.33;;;;;;;34.05;24.80;101887.47;5060482;28;20503;-72
2022/05/22 07:04:45;;;;;;;8.90;4.05;;;;;;;34.20;24.64;101881.59;5032470;28;20025;-72
2022/05/22 07:07:10;;;;;;;9.85;3.97;;;;;;;33.46;24.38;101886.59;5065019;28;20468;-72
2022/05/22 07:09:36;;;;;;;8.57;3.60;;;;;;;32.78;24.97;101887.22;5062605;28;20047;-72
2022/05/22 07:12:06;;;;;;;8.07;3.28;;;;;;;33.52;24.66;101885.16;5028254;28;20436;-72
2022/05/22 07:14:32;;;;;;;6.97;3.35;;;;;;;33.97;23.51;101879.22;5032897;28;20106;-71
2022/05/22 07:17:00;;;;;;;10.18;3.97;;;;;;;34.60;23.58;101881.38;5025368;28;20025;-72
2022/05/22 07:19:26;;;;;;;14.02;4.18;;;;;;;34.55;23.66;101872.81;5033030;28;20112;-72
2022/05/22 07:21:51;;;;;;;10.90;4.10;;;;;;;35.50;21.92;101875.34;5057718;28;20116;-72
2022/05/22 07:24:16;;;;;;;9.70;4.38;;;;;;;34.75;23.18;101861.91;5032789;28;20105;-72
2022/05/22 07:26:42;;;;;;;9.40;3.15;;;;;;;34.18;24.23;101865.47;5013896;28;20034;-72
2022/05/22 07:29:08;;;;;;;7.50;3.47;;;;;;;36.16;22.07;101862.31;5031679;28;20493;-72
2022/05/22 07:31:34;;;;;;;9.80;3.40;;;;;;;36.74;22.31;101870.81;5031342;28;20041;-72
2022/05/22 07:34:00;;;;;;;8.60;2.95;;;;;;;36.83;21.76;101858.97;5018237;28;20493;-72
2022/05/22 07:36:25;;;;;;;9.05;2.90;;;;;;;37.05;20.94;101870.31;5032477;28;20052;-72
2022/05/22 07:38:51;;;;;;;6.55;2.55;;;;;;;38.34;19.77;101863.41;5029815;28;20120;-72
2022/05/22 07:41:16;;;;;;;7.25;3.15;;;;;;;37.32;19.72;101864.59;5032739;28;20021;-72
2022/05/22 07:43:42;;;;;;;5.68;2.45;;;;;;;38.51;19.53;101858.75;5035999;28;20033;-72
2022/05/22 07:46:09;;;;;;;6.07;2.65;;;;;;;38.43;20.14;101866.97;5017497;28;20033;-71
2022/05/22 07:48:35;;;;;;;7.70;2.80;;;;;;;39.43;18.26;101858.13;5029650;28;20053;-72
2022/05/22 07:51:03;;;;;;;11.30;2.85;;;;;;;38.34;19.74;101858.78;5032170;28;20068;-72
2022/05/22 07:53:29;;;;;;;6.47;2.40;;;;;;;37.56;18.68;101860.19;5030597;28;20021;-71
2022/05/22 07:55:55;;;;;;;8.95;3.10;;;;;;;39.25;17.66;101850.22;4981082;28;20478;-71
2022/05/22 07:58:22;;;;;;;7.32;2.42;;;;;;;39.33;17.87;101852.91;5032085;28;20401;-71
2022/05/22 08:00:50;;;;;;;5.88;2.25;;;;;;;39.64;17.31;101852.03;5030559;28;20481;-71
2022/05/22 08:03:17;;;;;;;7.45;1.80;;;;;;;39.84;17.02;101843.28;5040324;28;20479;-71
2022/05/22 08:05:43;;;;;;;6.63;1.83;;;;;;;38.62;17.24;101844.72;5055877;28;20026;-71
2022/05/22 08:08:09;;;;;;;5.50;2.00;;;;;;;40.57;16.03;101832.59;5023449;28;20040;-71
2022/05/22 08:10:36;;;;;;;4.30;2.25;;;;;;;39.17;17.54;101842.09;5035366;28;20072;-72
2022/05/22 08:13:03;;;;;;;6.13;2.08;;;;;;;39.24;16.24;101834.88;5031386;28;20072;-71
2022/05/22 08:15:30;;;;;;;5.07;2.05;;;;;;;40.64;16.32;101822.59;5031397;28;20021;-72
2022/05/22 08:17:56;;;;;;;8.68;1.90;;;;;;;38.79;16.48;101828.31;5030365;28;20029;-71
2022/05/22 08:20:21;;;;;;;5.07;1.98;;;;;;;40.13;15.13;101819.75;5054912;28;20451;-72
2022/05/22 08:22:47;;;;;;;6.05;1.88;;;;;;;39.75;16.46;101811.56;5011274;28;20034;-72
2022/05/22 08:25:16;;;;;;;6.55;1.92;;;;;;;38.92;17.75;101811.31;5012779;28;20025;-71
2022/05/22 08:27:41;;;;;;;5.10;1.58;;;;;;;40.53;16.44;101796.56;5025037;28;20057;-72
2022/05/22 08:30:09;;;;;;;5.40;1.33;;;;;;;41.10;13.16;101798.69;5030980;28;20393;-71
2022/05/22 08:32:43;;;;;;;3.47;1.73;;;;;;;40.90;14.88;101799.28;5028006;28;20436;-71
2022/05/22 08:35:12;;;;;;;4.85;1.45;;;;;;;38.60;16.92;101797.63;5047026;28;20103;-71
2022/05/22 08:37:37;;;;;;;3.40;1.40;;;;;;;39.85;16.64;101784.81;5026587;28;20447;-72
2022/05/22 08:40:04;;;;;;;4.53;1.83;;;;;;;40.48;15.26;101792.66;5034469;28;20017;-71
2022/05/22 08:42:46;;;;;;;6.63;1.60;;;;;;;39.35;15.70;101789.84;5027334;28;20067;-71
2022/05/22 08:45:17;;;;;;;4.78;1.77;;;;;;;38.68;15.89;101794.84;5050507;28;20029;-72
2022/05/22 08:48:06;;;;;;;5.22;1.55;;;;;;;39.70;15.85;101791.09;5023774;28;20188;-71
2022/05/22 08:50:35;;;;;;;6.53;1.40;;;;;;;39.73;15.86;101794.50;5029562;28;20388;-72
2022/05/22 08:53:08;;;;;;;5.45;1.67;;;;;;;39.78;14.65;101786.59;5037109;28;20895;-72
2022/05/22 09:01:18;;;;;;;5.53;1.92;;;;;;;41.19;13.23;101781.91;5027566;28;20048;-72
2022/05/22 09:03:58;;;;;;;4.78;1.70;;;;;;;38.13;16.00;101782.09;5025714;28;20021;-71
2022/05/22 09:06:32;;;;;;;3.08;1.13;;;;;;;39.43;16.25;101786.19;5026754;28;20057;-71
2022/05/22 09:08:58;;;;;;;4.30;1.70;;;;;;;39.57;15.26;101774.47;5030605;28;20501;-71
2022/05/22 09:11:52;;;;;;;5.07;1.60;;;;;;;40.35;14.80;101769.53;5030323;28;20125;-71
2022/05/22 09:14:29;;;;;;;6.38;1.70;;;;;;;40.28;15.27;101774.06;5029582;28;20036;-72
2022/05/22 09:17:06;;;;;;;3.60;1.60;;;;;;;39.91;14.99;101767.63;5027785;28;20164;-71
2022/05/22 09:19:42;;;;;;;5.60;1.50;;;;;;;39.73;15.81;101758.94;5048639;28;20367;-71
2022/05/22 09:22:43;;;;;;;7.15;2.10;;;;;;;40.75;15.01;101751.91;5039860;28;20085;-71
2022/05/22 09:25:24;;;;;;;5.45;1.60;;;;;;;40.56;14.81;101743.28;5037959;28;20091;-71
2022/05/22 09:28:04;;;;;;;4.22;1.55;;;;;;;38.59;16.44;101757.69;5025596;28;20136;-71
2022/05/22 09:30:48;;;;;;;4.75;1.90;;;;;;;38.89;17.07;101741.50;5033521;28;20033;-71
2022/05/22 09:33:45;;;;;;;5.80;1.50;;;;;;;38.73;15.61;101747.06;5034415;28;20120;-71
2022/05/22 09:36:23;;;;;;;6.95;1.88;;;;;;;38.57;16.83;101740.66;5032921;28;20061;-72
2022/05/22 09:39:12;;;;;;;4.22;1.80;;;;;;;38.24;16.53;101738.06;5066007;28;20029;-71
2022/05/22 09:42:17;;;;;;;4.35;1.83;;;;;;;38.39;16.51;101738.19;5033026;28;20051;-71
2022/05/22 09:45:01;;;;;;;2.03;1.38;;;;;;;38.04;16.37;101734.03;5033685;28;20029;-71
2022/05/22 09:47:45;;;;;;;5.18;1.40;;;;;;;38.01;15.75;101737.94;5019935;28;20099;-71
2022/05/22 09:50:21;;;;;;;6.35;1.70;;;;;;;39.66;15.13;101737.81;5033159;28;20026;-71
2022/05/22 09:52:58;;;;;;;3.70;1.40;;;;;;;38.57;15.81;101737.91;5034065;28;20075;-71
2022/05/22 09:55:42;;;;;;;7.53;1.75;;;;;;;40.53;14.37;101733.56;5035070;28;20030;-71
2022/05/22 09:58:50;;;;;;;4.40;1.52;;;;;;;38.60;15.58;101731.25;5033256;28;20029;-71
2022/05/22 10:01:25;;;;;;;3.65;1.70;;;;;;;37.89;15.94;101737.47;5037770;28;20025;-71
2022/05/22 10:04:19;;;;;;;4.78;1.50;;;;;;;37.89;15.53;101742.91;5034432;28;20523;-71
2022/05/22 10:07:06;;;;;;;4.05;1.50;;;;;;;37.95;16.42;101739.50;5065049;28;20032;-71
2022/05/22 10:09:53;;;;;;;3.97;1.67;;;;;;;37.97;15.79;101745.63;5034934;28;20025;-71
2022/05/22 10:12:43;;;;;;;5.95;1.90;;;;;;;38.10;16.15;101742.38;5052685;28;20082;-71
2022/05/22 10:15:30;;;;;;;6.47;1.98;;;;;;;38.59;16.17;101724.91;5036968;28;20110;-71
2022/05/22 10:18:33;;;;;;;6.10;2.08;;;;;;;40.01;15.05;101718.94;5035461;28;20030;-71
2022/05/22 10:21:19;;;;;;;5.45;1.60;;;;;;;40.03;15.18;101714.13;5046805;28;20025;-71
2022/05/22 10:23:59;;;;;;;4.88;1.60;;;;;;;40.38;14.04;101702.56;5015239;28;20041;-71
2022/05/22 10:26:40;;;;;;;3.53;1.63;;;;;;;39.63;16.11;101699.06;5045883;28;20034;-71
2022/05/22 10:29:17;;;;;;;3.25;1.08;;;;;;;40.23;14.85;101699.91;5053988;28;20176;-71
2022/05/22 10:31:45;;;;;;;5.88;1.67;;;;;;;38.40;16.56;101709.00;5031622;28;20033;-71
2022/05/22 10:34:20;;;;;;;6.88;1.52;;;;;;;39.28;16.41;101702.28;5064353;28;20040;-71
2022/05/22 10:36:50;;;;;;;5.25;2.08;;;;;;;39.41;14.69;101703.53;5044635;28;20029;-71
2022/05/22 10:39:16;;;;;;;4.93;1.50;;;;;;;39.21;16.47;101695.00;5032563;28;20117;-71
2022/05/22 10:44:48;;;;;;;3.80;1.77;;;;;;;36.47;17.46;101693.13;5033528;28;20063;-71
2022/05/22 10:47:13;;;;;;;3.92;1.52;;;;;;;37.33;16.33;101680.97;5031671;28;20394;-71
2022/05/22 10:49:45;;;;;;;4.57;1.52;;;;;;;39.74;16.00;101673.13;5032456;28;20028;-72
2022/05/22 10:52:13;;;;;;;6.00;2.33;;;;;;;38.96;15.75;101673.31;5038900;28;20381;-71
2022/05/22 10:54:50;;;;;;;4.95;2.50;;;;;;;37.97;16.63;101666.50;5047098;28;20029;-71
2022/05/22 10:57:19;;;;;;;5.13;2.05;;;;;;;38.64;16.08;101667.03;5032397;28;20033;-71
2022/05/22 10:59:45;;;;;;;5.60;2.45;;;;;;;39.29;15.24;101653.91;5033767;28;20022;-72
2022/05/22 11:02:28;;;;;;;3.97;2.20;;;;;;;38.72;16.03;101652.50;5032709;28;20033;-71
2022/05/22 11:04:55;;;;;;;9.55;2.50;;;;;;;38.89;16.45;101654.06;5032666;28;20053;-71
2022/05/22 11:07:31;;;;;;;5.03;1.90;;;;;;;38.98;15.49;101647.50;5032585;28;20409;-71
2022/05/22 11:10:06;;;;;;;6.22;1.92;;;;;;;38.94;15.61;101651.66;5031627;28;20041;-70
2022/05/22 11:12:32;;;;;;;3.33;1.65;;;;;;;39.77;15.37;101650.84;5032329;28;20057;-73
2022/05/22 11:15:13;;;;;;;7.45;2.17;;;;;;;38.57;16.45;101647.81;5030581;28;20072;-71
2022/05/22 11:17:39;;;;;;;6.60;2.10;;;;;;;38.16;16.35;101642.56;5049003;28;20025;-71
2022/05/22 11:20:24;;;;;;;6.95;1.60;;;;;;;38.45;16.45;101646.53;5033474;28;20022;-72
2022/05/22 11:23:24;;;;;;;6.82;2.20;;;;;;;38.87;16.23;101634.31;5031994;28;20029;-71
2022/05/22 11:26:17;;;;;;;3.45;1.92;;;;;;;38.80;16.85;101638.78;5034582;28;20024;-71
2022/05/22 11:29:20;;;;;;;8.02;2.33;;;;;;;38.69;16.88;101632.72;5047756;28;20033;-71
2022/05/22 11:32:13;;;;;;;4.82;2.30;;;;;;;39.19;16.51;101624.13;5031271;28;20459;-71
2022/05/22 11:34:57;;;;;;;9.18;2.20;;;;;;;39.32;15.24;101618.00;5031766;28;20112;-71
2022/05/22 11:37:41;;;;;;;6.15;2.08;;;;;;;38.46;16.23;101610.00;5030630;28;20072;-71
2022/05/22 11:40:20;;;;;;;6.43;2.03;;;;;;;38.65;15.95;101609.50;5052298;28;20341;-71
2022/05/22 11:42:46;;;;;;;8.77;2.35;;;;;;;38.61;16.82;101619.09;5034690;28;20037;-71
2022/05/22 11:45:39;;;;;;;6.90;2.00;;;;;;;39.25;15.90;101609.69;5035445;28;20030;-71
2022/05/22 11:48:15;;;;;;;2.55;1.02;;;;;;;37.48;16.73;101612.13;5031775;28;20043;-71